sensor_id;sensor_type;location;lat;lon;timestamp;pressure;altitude;pressure_sealevel;temperature;humidity
49979;BME280;35869;50.990;6.962;2023-05-01T00:01:22;101435.16;;;11.84;77.41
49979;BME280;35869;50.990;6.962;2023-05-01T00:06:22;101433.53;;;11.81;76.73
49979;BME280;35869;50.990;6.962;2023-05-01T00:11:23;101423.16;;;11.80;76.83
49979;BME280;35869;50.990;6.962;2023-05-01T00:16:23;101420.56;;;11.78;77.41
49979;BME280;35869;50.990;6.962;2023-05-01T00:21:23;101415.38;;;11.78;76.19
49979;BME280;35869;50.990;6.962;2023-05-01T00:26:23;101409.31;;;11.78;76.16
49979;BME280;35869;50.990;6.962;2023-05-01T00:31:23;101404.06;;;11.79;76.91
49979;BME280;35869;50.990;6.962;2023-05-01T00:36:24;101403.31;;;11.75;76.59
49979;BME280;35869;50.990;6.962;2023-05-01T00:41:24;101399.03;;;11.74;75.75
49979;BME280;35869;50.990;6.962;2023-05-01T00:46:25;101398.19;;;11.74;75.56
49979;BME280;35869;50.990;6.962;2023-05-01T00:51:28;101394.72;;;11.73;75.42
49979;BME280;35869;50.990;6.962;2023-05-01T00:56:30;101384.41;;;11.70;74.91
49979;BME280;35869;50.990;6.962;2023-05-01T01:01:30;101375.84;;;11.68;75.70
49979;BME280;35869;50.990;6.962;2023-05-01T01:12:08;101359.13;;;11.74;74.56
49979;BME280;35869;50.990;6.962;2023-05-01T01:22:22;101359.38;;;11.68;74.33
49979;BME280;35869;50.990;6.962;2023-05-01T01:38:03;101349.72;;;11.70;73.95
49979;BME280;35869;50.990;6.962;2023-05-01T01:43:07;101343.66;;;11.69;73.72
49979;BME280;35869;50.990;6.962;2023-05-01T01:48:16;101335.78;;;11.71;73.47
49979;BME280;35869;50.990;6.962;2023-05-01T01:53:19;101332.41;;;11.69;73.89
49979;BME280;35869;50.990;6.962;2023-05-01T01:58:21;101326.34;;;11.68;73.60
49979;BME280;35869;50.990;6.962;2023-05-01T02:03:23;101321.16;;;11.68;74.27
49979;BME280;35869;50.990;6.962;2023-05-01T02:08:24;101319.50;;;11.66;73.90
49979;BME280;35869;50.990;6.962;2023-05-01T02:13:27;101311.69;;;11.66;74.27
49979;BME280;35869;50.990;6.962;2023-05-01T02:18:28;101310.84;;;11.65;74.44
49979;BME280;35869;50.990;6.962;2023-05-01T02:23:30;101306.53;;;11.64;75.14
49979;BME280;35869;50.990;6.962;2023-05-01T02:28:32;101296.06;;;11.66;74.31
49979;BME280;35869;50.990;6.962;2023-05-01T02:33:33;101280.56;;;11.63;76.06
49979;BME280;35869;50.990;6.962;2023-05-01T02:38:33;101282.25;;;11.64;74.56
49979;BME280;35869;50.990;6.962;2023-05-01T02:43:35;101276.22;;;11.63;74.91
49979;BME280;35869;50.990;6.962;2023-05-01T02:53:45;101258.91;;;11.62;75.78
49979;BME280;35869;50.990;6.962;2023-05-01T02:58:49;101255.50;;;11.60;75.27
49979;BME280;35869;50.990;6.962;2023-05-01T03:03:49;101248.66;;;11.58;75.58
49979;BME280;35869;50.990;6.962;2023-05-01T03:08:49;101251.28;;;11.58;75.50
49979;BME280;35869;50.990;6.962;2023-05-01T03:13:49;101240.97;;;11.55;76.17
49979;BME280;35869;50.990;6.962;2023-05-01T03:18:49;101235.47;;;11.62;76.00
49979;BME280;35869;50.990;6.962;2023-05-01T03:23:50;101236.75;;;11.52;76.64
49979;BME280;35869;50.990;6.962;2023-05-01T03:28:50;101228.94;;;11.52;78.92
49979;BME280;35869;50.990;6.962;2023-05-01T03:33:50;101220.44;;;11.47;79.76
49979;BME280;35869;50.990;6.962;2023-05-01T03:38:50;101218.75;;;11.46;80.33
49979;BME280;35869;50.990;6.962;2023-05-01T03:43:50;101217.16;;;11.43;81.07
49979;BME280;35869;50.990;6.962;2023-05-01T03:48:51;101212.88;;;11.41;81.54
49979;BME280;35869;50.990;6.962;2023-05-01T03:53:51;101207.88;;;11.36;81.53
49979;BME280;35869;50.990;6.962;2023-05-01T03:58:51;101209.75;;;11.33;82.82
49979;BME280;35869;50.990;6.962;2023-05-01T04:03:52;101203.06;;;11.26;85.03
49979;BME280;35869;50.990;6.962;2023-05-01T04:08:52;101210.25;;;11.20;82.96
49979;BME280;35869;50.990;6.962;2023-05-01T04:13:52;101201.69;;;11.17;83.43
49979;BME280;35869;50.990;6.962;2023-05-01T04:18:52;101200.94;;;11.13;83.19
49979;BME280;35869;50.990;6.962;2023-05-01T04:23:53;101201.19;;;11.07;84.42
49979;BME280;35869;50.990;6.962;2023-05-01T04:28:53;101198.81;;;11.01;83.78
49979;BME280;35869;50.990;6.962;2023-05-01T04:33:53;101206.75;;;10.98;83.45
49979;BME280;35869;50.990;6.962;2023-05-01T04:38:53;101201.56;;;10.98;83.83
49979;BME280;35869;50.990;6.962;2023-05-01T04:43:54;101200.75;;;10.96;83.63
49979;BME280;35869;50.990;6.962;2023-05-01T04:48:54;101201.91;;;10.89;83.73
49979;BME280;35869;50.990;6.962;2023-05-01T04:53:54;101207.03;;;10.90;83.45
49979;BME280;35869;50.990;6.962;2023-05-01T04:58:54;101201.13;;;10.87;84.75
49979;BME280;35869;50.990;6.962;2023-05-01T05:03:54;101201.28;;;10.82;83.70
49979;BME280;35869;50.990;6.962;2023-05-01T05:08:55;101197.59;;;10.88;82.21
49979;BME280;35869;50.990;6.962;2023-05-01T05:13:55;101201.19;;;10.85;81.06
49979;BME280;35869;50.990;6.962;2023-05-01T05:18:55;101202.56;;;10.94;80.17
49979;BME280;35869;50.990;6.962;2023-05-01T05:23:55;101202.50;;;10.95;80.04
49979;BME280;35869;50.990;6.962;2023-05-01T05:28:56;101200.72;;;10.98;79.60
49979;BME280;35869;50.990;6.962;2023-05-01T05:33:56;101204.03;;;11.01;80.47
49979;BME280;35869;50.990;6.962;2023-05-01T05:38:56;101203.78;;;11.07;79.50
49979;BME280;35869;50.990;6.962;2023-05-01T05:43:56;101194.88;;;11.14;79.89
49979;BME280;35869;50.990;6.962;2023-05-01T05:48:56;101196.38;;;11.20;79.32
49979;BME280;35869;50.990;6.962;2023-05-01T05:53:57;101195.84;;;11.34;79.50
49979;BME280;35869;50.990;6.962;2023-05-01T05:58:57;101193.06;;;11.38;78.92
49979;BME280;35869;50.990;6.962;2023-05-01T06:03:57;101197.88;;;11.47;78.47
49979;BME280;35869;50.990;6.962;2023-05-01T06:08:57;101195.09;;;11.52;78.11
49979;BME280;35869;50.990;6.962;2023-05-01T06:13:57;101194.97;;;11.55;78.08
49979;BME280;35869;50.990;6.962;2023-05-01T06:18:58;101192.75;;;11.66;75.99
49979;BME280;35869;50.990;6.962;2023-05-01T06:23:58;101188.09;;;11.74;74.77
49979;BME280;35869;50.990;6.962;2023-05-01T06:28:58;101186.50;;;11.92;74.99
49979;BME280;35869;50.990;6.962;2023-05-01T06:33:58;101183.75;;;11.95;75.36
49979;BME280;35869;50.990;6.962;2023-05-01T06:38:58;101181.50;;;12.08;74.48
49979;BME280;35869;50.990;6.962;2023-05-01T06:43:59;101187.94;;;12.20;75.20
49979;BME280;35869;50.990;6.962;2023-05-01T06:48:59;101187.41;;;12.32;73.38
49979;BME280;35869;50.990;6.962;2023-05-01T06:53:59;101188.81;;;12.39;74.20
49979;BME280;35869;50.990;6.962;2023-05-01T06:58:59;101178.47;;;12.57;72.74
49979;BME280;35869;50.990;6.962;2023-05-01T07:03:59;101173.34;;;12.55;73.67
49979;BME280;35869;50.990;6.962;2023-05-01T07:09:00;101182.13;;;12.71;72.54
49979;BME280;35869;50.990;6.962;2023-05-01T07:14:00;101175.75;;;12.78;72.26
49979;BME280;35869;50.990;6.962;2023-05-01T07:19:00;101173.97;;;12.98;72.38
49979;BME280;35869;50.990;6.962;2023-05-01T07:24:00;101173.59;;;13.05;71.65
49979;BME280;35869;50.990;6.962;2023-05-01T07:29:00;101170.63;;;13.13;70.49
49979;BME280;35869;50.990;6.962;2023-05-01T07:34:01;101163.72;;;13.12;73.67
49979;BME280;35869;50.990;6.962;2023-05-01T07:39:01;101165.63;;;13.27;72.46
49979;BME280;35869;50.990;6.962;2023-05-01T07:44:01;101153.44;;;13.63;68.70
49979;BME280;35869;50.990;6.962;2023-05-01T07:49:02;101156.59;;;13.52;73.90
49979;BME280;35869;50.990;6.962;2023-05-01T07:54:02;101152.59;;;13.97;68.83
49979;BME280;35869;50.990;6.962;2023-05-01T07:59:02;101155.88;;;14.00;69.97
49979;BME280;35869;50.990;6.962;2023-05-01T08:04:02;101155.78;;;14.19;67.85
49979;BME280;35869;50.990;6.962;2023-05-01T08:09:03;101157.94;;;14.44;68.84
49979;BME280;35869;50.990;6.962;2023-05-01T08:14:03;101151.41;;;14.35;71.91
49979;BME280;35869;50.990;6.962;2023-05-01T08:19:03;101157.47;;;14.69;68.42
49979;BME280;35869;50.990;6.962;2023-05-01T08:24:08;101156.97;;;14.94;67.94
49979;BME280;35869;50.990;6.962;2023-05-01T08:29:08;101145.75;;;15.08;66.84
49979;BME280;35869;50.990;6.962;2023-05-01T08:34:08;101148.41;;;15.22;66.43
49979;BME280;35869;50.990;6.962;2023-05-01T08:39:09;101139.50;;;15.40;64.18
49979;BME280;35869;50.990;6.962;2023-05-01T08:44:09;101142.94;;;15.57;64.67
49979;BME280;35869;50.990;6.962;2023-05-01T08:49:11;101145.22;;;15.47;68.71
49979;BME280;35869;50.990;6.962;2023-05-01T08:54:13;101147.69;;;15.80;62.49
49979;BME280;35869;50.990;6.962;2023-05-01T08:59:15;101141.56;;;15.95;59.96
49979;BME280;35869;50.990;6.962;2023-05-01T09:04:16;101142.47;;;16.23;61.51
49979;BME280;35869;50.990;6.962;2023-05-01T09:09:16;101142.22;;;16.27;64.13
49979;BME280;35869;50.990;6.962;2023-05-01T09:14:16;101139.50;;;16.43;64.65
49979;BME280;35869;50.990;6.962;2023-05-01T09:19:17;101134.88;;;16.61;62.48
49979;BME280;35869;50.990;6.962;2023-05-01T09:24:17;101135.34;;;16.68;59.81
49979;BME280;35869;50.990;6.962;2023-05-01T09:29:40;101137.66;;;16.87;62.48
49979;BME280;35869;50.990;6.962;2023-05-01T09:34:42;101138.09;;;16.93;63.75
49979;BME280;35869;50.990;6.962;2023-05-01T09:39:42;101134.69;;;17.05;65.13
49979;BME280;35869;50.990;6.962;2023-05-01T09:44:43;101135.28;;;17.23;63.25
49979;BME280;35869;50.990;6.962;2023-05-01T09:49:44;101127.78;;;17.44;61.82
49979;BME280;35869;50.990;6.962;2023-05-01T09:54:44;101123.88;;;17.50;63.31
49979;BME280;35869;50.990;6.962;2023-05-01T10:00:00;101125.63;;;17.76;64.75
49979;BME280;35869;50.990;6.962;2023-05-01T10:05:01;101111.34;;;18.06;58.38
49979;BME280;35869;50.990;6.962;2023-05-01T10:10:15;101115.75;;;18.05;56.24
49979;BME280;35869;50.990;6.962;2023-05-01T10:15:15;101116.16;;;18.25;53.34
49979;BME280;35869;50.990;6.962;2023-05-01T10:20:15;101116.22;;;18.49;55.65
49979;BME280;35869;50.990;6.962;2023-05-01T10:25:16;101109.72;;;18.78;55.09
49979;BME280;35869;50.990;6.962;2023-05-01T10:30:17;101109.00;;;19.00;53.37
49979;BME280;35869;50.990;6.962;2023-05-01T10:35:22;101103.34;;;19.29;54.72
49979;BME280;35869;50.990;6.962;2023-05-01T10:45:39;101089.84;;;19.80;53.63
49979;BME280;35869;50.990;6.962;2023-05-01T10:51:08;101084.59;;;19.91;52.82
49979;BME280;35869;50.990;6.962;2023-05-01T11:01:31;101071.88;;;20.07;49.79
49979;BME280;35869;50.990;6.962;2023-05-01T11:06:31;101070.44;;;20.48;54.93
49979;BME280;35869;50.990;6.962;2023-05-01T11:21:38;101060.44;;;20.95;50.64
49979;BME280;35869;50.990;6.962;2023-05-01T11:26:40;101060.41;;;21.06;46.58
49979;BME280;35869;50.990;6.962;2023-05-01T11:31:40;101056.44;;;21.21;51.08
49979;BME280;35869;50.990;6.962;2023-05-01T11:36:48;101058.56;;;21.39;57.95
49979;BME280;35869;50.990;6.962;2023-05-01T11:41:48;101054.78;;;21.20;60.26
49979;BME280;35869;50.990;6.962;2023-05-01T11:46:55;101050.47;;;21.92;49.42
49979;BME280;35869;50.990;6.962;2023-05-01T11:51:56;101054.94;;;21.40;55.41
49979;BME280;35869;50.990;6.962;2023-05-01T11:56:58;101044.84;;;21.13;56.80
49979;BME280;35869;50.990;6.962;2023-05-01T12:01:58;101049.72;;;21.80;50.92
49979;BME280;35869;50.990;6.962;2023-05-01T12:06:58;101046.19;;;21.28;58.72
49979;BME280;35869;50.990;6.962;2023-05-01T12:11:59;101040.72;;;21.20;55.77
49979;BME280;35869;50.990;6.962;2023-05-01T12:16:59;101045.00;;;21.53;55.47
49979;BME280;35869;50.990;6.962;2023-05-01T12:22:09;101038.91;;;21.20;57.16
49979;BME280;35869;50.990;6.962;2023-05-01T12:27:09;101035.34;;;20.89;52.81
49979;BME280;35869;50.990;6.962;2023-05-01T12:32:09;101030.28;;;21.18;52.63
49979;BME280;35869;50.990;6.962;2023-05-01T12:37:09;101027.03;;;21.47;53.37
49979;BME280;35869;50.990;6.962;2023-05-01T12:42:11;101031.41;;;20.84;51.10
49979;BME280;35869;50.990;6.962;2023-05-01T12:47:12;101020.59;;;21.08;54.52
49979;BME280;35869;50.990;6.962;2023-05-01T12:52:12;101013.69;;;22.19;46.62
49979;BME280;35869;50.990;6.962;2023-05-01T12:57:14;101014.59;;;21.99;52.55
49979;BME280;35869;50.990;6.962;2023-05-01T13:02:16;101001.72;;;22.25;48.52
49979;BME280;35869;50.990;6.962;2023-05-01T13:07:17;101006.28;;;22.13;52.84
49979;BME280;35869;50.990;6.962;2023-05-01T13:12:18;101002.31;;;22.77;41.85
49979;BME280;35869;50.990;6.962;2023-05-01T13:17:25;101005.75;;;22.39;45.10
49979;BME280;35869;50.990;6.962;2023-05-01T13:22:33;100994.75;;;22.33;52.59
49979;BME280;35869;50.990;6.962;2023-05-01T13:27:34;100996.03;;;22.58;48.06
49979;BME280;35869;50.990;6.962;2023-05-01T13:32:39;101003.94;;;22.39;53.08
49979;BME280;35869;50.990;6.962;2023-05-01T13:37:40;101002.94;;;22.21;49.92
49979;BME280;35869;50.990;6.962;2023-05-01T13:42:40;100998.97;;;22.55;53.51
49979;BME280;35869;50.990;6.962;2023-05-01T13:47:40;100999.63;;;22.38;53.57
49979;BME280;35869;50.990;6.962;2023-05-01T13:52:42;101006.75;;;21.88;51.56
49979;BME280;35869;50.990;6.962;2023-05-01T13:57:43;101006.75;;;21.88;50.41
49979;BME280;35869;50.990;6.962;2023-05-01T14:02:45;101018.03;;;21.59;48.98
49979;BME280;35869;50.990;6.962;2023-05-01T14:07:56;101017.81;;;21.41;49.13
49979;BME280;35869;50.990;6.962;2023-05-01T14:12:57;101040.56;;;20.80;49.16
49979;BME280;35869;50.990;6.962;2023-05-01T14:18:03;101057.44;;;20.56;51.05
49979;BME280;35869;50.990;6.962;2023-05-01T14:23:04;101074.25;;;20.44;52.08
49979;BME280;35869;50.990;6.962;2023-05-01T14:28:05;101086.03;;;20.29;51.70
49979;BME280;35869;50.990;6.962;2023-05-01T14:33:11;101081.00;;;20.03;51.40
49979;BME280;35869;50.990;6.962;2023-05-01T14:38:13;101107.22;;;19.60;53.02
49979;BME280;35869;50.990;6.962;2023-05-01T14:43:16;101136.69;;;19.30;55.31
49979;BME280;35869;50.990;6.962;2023-05-01T14:48:21;101143.75;;;19.05;56.71
49979;BME280;35869;50.990;6.962;2023-05-01T14:53:22;101184.44;;;18.64;60.91
49979;BME280;35869;50.990;6.962;2023-05-01T14:58:22;101194.16;;;18.26;63.84
49979;BME280;35869;50.990;6.962;2023-05-01T15:03:22;101203.50;;;18.04;64.97
49979;BME280;35869;50.990;6.962;2023-05-01T15:08:22;101193.75;;;17.67;68.55
49979;BME280;35869;50.990;6.962;2023-05-01T15:13:23;101199.84;;;17.40;70.23
49979;BME280;35869;50.990;6.962;2023-05-01T15:18:23;101202.22;;;17.03;71.96
49979;BME280;35869;50.990;6.962;2023-05-01T15:23:23;101199.09;;;16.84;73.25
49979;BME280;35869;50.990;6.962;2023-05-01T15:28:23;101192.78;;;16.58;75.24
49979;BME280;35869;50.990;6.962;2023-05-01T15:33:23;101191.59;;;16.49;74.92
49979;BME280;35869;50.990;6.962;2023-05-01T15:38:24;101189.41;;;16.27;77.85
49979;BME280;35869;50.990;6.962;2023-05-01T15:43:24;101185.75;;;16.16;79.26
49979;BME280;35869;50.990;6.962;2023-05-01T15:48:24;101177.91;;;16.02;79.19
49979;BME280;35869;50.990;6.962;2023-05-01T15:53:25;101173.09;;;15.94;79.55
49979;BME280;35869;50.990;6.962;2023-05-01T15:58:25;101177.09;;;15.85;79.66
49979;BME280;35869;50.990;6.962;2023-05-01T16:03:25;101184.41;;;15.80;81.06
49979;BME280;35869;50.990;6.962;2023-05-01T16:08:25;101177.25;;;15.68;83.47
49979;BME280;35869;50.990;6.962;2023-05-01T16:13:26;101173.88;;;15.66;82.15
49979;BME280;35869;50.990;6.962;2023-05-01T16:18:26;101178.66;;;15.73;77.92
49979;BME280;35869;50.990;6.962;2023-05-01T16:23:26;101197.03;;;15.58;85.26
49979;BME280;35869;50.990;6.962;2023-05-01T16:28:26;101201.50;;;15.71;80.24
49979;BME280;35869;50.990;6.962;2023-05-01T16:33:27;101214.50;;;15.57;85.60
49979;BME280;35869;50.990;6.962;2023-05-01T16:38:27;101223.84;;;15.63;82.44
49979;BME280;35869;50.990;6.962;2023-05-01T16:43:27;101228.81;;;15.52;81.70
49979;BME280;35869;50.990;6.962;2023-05-01T16:48:27;101232.63;;;15.46;83.07
49979;BME280;35869;50.990;6.962;2023-05-01T16:53:28;101228.66;;;15.39;82.56
49979;BME280;35869;50.990;6.962;2023-05-01T16:58:28;101229.00;;;15.33;82.30
49979;BME280;35869;50.990;6.962;2023-05-01T17:03:28;101225.38;;;15.19;84.16
49979;BME280;35869;50.990;6.962;2023-05-01T17:08:28;101229.94;;;15.16;84.64
49979;BME280;35869;50.990;6.962;2023-05-01T17:13:29;101227.84;;;15.07;85.37
49979;BME280;35869;50.990;6.962;2023-05-01T17:18:29;101227.25;;;15.02;85.69
49979;BME280;35869;50.990;6.962;2023-05-01T17:23:29;101229.09;;;15.00;85.05
49979;BME280;35869;50.990;6.962;2023-05-01T17:28:29;101228.50;;;14.94;84.99
49979;BME280;35869;50.990;6.962;2023-05-01T17:33:30;101239.47;;;14.85;88.18
49979;BME280;35869;50.990;6.962;2023-05-01T17:38:30;101236.00;;;14.85;84.87
49979;BME280;35869;50.990;6.962;2023-05-01T17:43:30;101252.03;;;14.79;86.37
49979;BME280;35869;50.990;6.962;2023-05-01T17:48:30;101248.13;;;14.70;87.30
49979;BME280;35869;50.990;6.962;2023-05-01T17:53:30;101236.63;;;14.57;86.15
49979;BME280;35869;50.990;6.962;2023-05-01T17:58:31;101230.19;;;14.47;87.13
49979;BME280;35869;50.990;6.962;2023-05-01T18:03:31;101243.88;;;14.34;86.42
49979;BME280;35869;50.990;6.962;2023-05-01T18:08:31;101257.88;;;14.33;83.52
49979;BME280;35869;50.990;6.962;2023-05-01T18:13:31;101271.41;;;14.24;87.01
49979;BME280;35869;50.990;6.962;2023-05-01T18:18:31;101268.25;;;14.18;86.20
49979;BME280;35869;50.990;6.962;2023-05-01T18:23:32;101277.19;;;14.13;86.88
49979;BME280;35869;50.990;6.962;2023-05-01T18:28:33;101271.41;;;14.07;87.69
49979;BME280;35869;50.990;6.962;2023-05-01T18:33:33;101277.09;;;13.98;86.63
49979;BME280;35869;50.990;6.962;2023-05-01T18:38:33;101280.88;;;13.92;88.17
49979;BME280;35869;50.990;6.962;2023-05-01T18:43:33;101284.00;;;13.81;88.46
49979;BME280;35869;50.990;6.962;2023-05-01T18:48:33;101287.84;;;13.74;88.51
49979;BME280;35869;50.990;6.962;2023-05-01T18:53:34;101295.22;;;13.66;88.93
49979;BME280;35869;50.990;6.962;2023-05-01T18:58:34;101300.09;;;13.55;88.39
49979;BME280;35869;50.990;6.962;2023-05-01T19:03:34;101313.56;;;13.46;89.16
49979;BME280;35869;50.990;6.962;2023-05-01T19:08:35;101324.28;;;13.40;87.06
49979;BME280;35869;50.990;6.962;2023-05-01T19:13:35;101329.03;;;13.31;88.49
49979;BME280;35869;50.990;6.962;2023-05-01T19:18:37;101330.22;;;13.24;87.92
49979;BME280;35869;50.990;6.962;2023-05-01T19:23:37;101329.06;;;13.11;88.00
49979;BME280;35869;50.990;6.962;2023-05-01T19:28:37;101337.06;;;13.06;88.92
49979;BME280;35869;50.990;6.962;2023-05-01T19:33:37;101339.31;;;12.95;90.28
49979;BME280;35869;50.990;6.962;2023-05-01T19:38:37;101349.06;;;12.92;88.33
49979;BME280;35869;50.990;6.962;2023-05-01T19:43:38;101351.13;;;12.84;88.01
49979;BME280;35869;50.990;6.962;2023-05-01T19:48:38;101357.34;;;12.81;87.69
49979;BME280;35869;50.990;6.962;2023-05-01T19:53:38;101365.69;;;12.69;90.29
49979;BME280;35869;50.990;6.962;2023-05-01T19:58:38;101363.34;;;12.63;88.06
49979;BME280;35869;50.990;6.962;2023-05-01T20:03:38;101374.13;;;12.55;88.74
49979;BME280;35869;50.990;6.962;2023-05-01T20:08:41;101377.09;;;12.46;90.17
49979;BME280;35869;50.990;6.962;2023-05-01T20:13:41;101377.34;;;12.40;90.20
49979;BME280;35869;50.990;6.962;2023-05-01T20:18:42;101386.09;;;12.39;92.21
49979;BME280;35869;50.990;6.962;2023-05-01T20:23:42;101394.94;;;12.35;89.77
49979;BME280;35869;50.990;6.962;2023-05-01T20:28:42;101391.81;;;12.26;89.68
49979;BME280;35869;50.990;6.962;2023-05-01T20:33:42;101392.94;;;12.19;90.72
49979;BME280;35869;50.990;6.962;2023-05-01T20:38:43;101403.56;;;12.15;91.00
49979;BME280;35869;50.990;6.962;2023-05-01T20:43:43;101401.25;;;12.07;91.30
49979;BME280;35869;50.990;6.962;2023-05-01T20:48:43;101404.00;;;12.04;91.46
49979;BME280;35869;50.990;6.962;2023-05-01T20:53:43;101412.75;;;12.01;91.43
49979;BME280;35869;50.990;6.962;2023-05-01T20:58:44;101411.38;;;11.93;92.67
49979;BME280;35869;50.990;6.962;2023-05-01T21:03:44;101415.81;;;11.91;92.58
49979;BME280;35869;50.990;6.962;2023-05-01T21:08:44;101408.34;;;11.82;92.88
49979;BME280;35869;50.990;6.962;2023-05-01T21:13:44;101417.25;;;11.74;93.03
49979;BME280;35869;50.990;6.962;2023-05-01T21:18:45;101418.41;;;11.67;92.50
49979;BME280;35869;50.990;6.962;2023-05-01T21:23:46;101418.41;;;11.67;93.40
49979;BME280;35869;50.990;6.962;2023-05-01T21:28:46;101434.59;;;11.52;92.79
49979;BME280;35869;50.990;6.962;2023-05-01T21:33:47;101432.75;;;11.54;93.24
49979;BME280;35869;50.990;6.962;2023-05-01T21:38:47;101450.09;;;11.55;92.93
49979;BME280;35869;50.990;6.962;2023-05-01T21:43:47;101449.22;;;11.55;92.46
49979;BME280;35869;50.990;6.962;2023-05-01T21:48:49;101457.56;;;11.41;92.25
49979;BME280;35869;50.990;6.962;2023-05-01T21:53:49;101467.03;;;11.43;92.18
49979;BME280;35869;50.990;6.962;2023-05-01T21:58:49;101465.50;;;11.36;91.25
49979;BME280;35869;50.990;6.962;2023-05-01T22:03:50;101469.31;;;11.28;93.96
49979;BME280;35869;50.990;6.962;2023-05-01T22:08:50;101476.38;;;11.24;92.10
49979;BME280;35869;50.990;6.962;2023-05-01T22:13:50;101476.47;;;11.21;91.20
49979;BME280;35869;50.990;6.962;2023-05-01T22:18:51;101480.19;;;11.14;91.08
49979;BME280;35869;50.990;6.962;2023-05-01T22:23:51;101484.75;;;11.07;92.76
49979;BME280;35869;50.990;6.962;2023-05-01T22:28:51;101488.25;;;11.06;91.88
49979;BME280;35869;50.990;6.962;2023-05-01T22:33:51;101493.47;;;11.06;91.84
49979;BME280;35869;50.990;6.962;2023-05-01T22:38:51;101504.84;;;11.02;91.51
49979;BME280;35869;50.990;6.962;2023-05-01T22:43:52;101512.19;;;10.91;91.85
49979;BME280;35869;50.990;6.962;2023-05-01T22:48:52;101516.56;;;10.89;92.40
49979;BME280;35869;50.990;6.962;2023-05-01T22:53:52;101517.75;;;10.80;92.88
49979;BME280;35869;50.990;6.962;2023-05-01T22:58:52;101534.28;;;10.78;93.68
49979;BME280;35869;50.990;6.962;2023-05-01T23:03:52;101529.19;;;10.75;92.75
49979;BME280;35869;50.990;6.962;2023-05-01T23:08:53;101529.28;;;10.72;92.93
49979;BME280;35869;50.990;6.962;2023-05-01T23:13:53;101532.78;;;10.71;92.77
49979;BME280;35869;50.990;6.962;2023-05-01T23:18:54;101539.88;;;10.65;91.83
49979;BME280;35869;50.990;6.962;2023-05-01T23:23:54;101544.88;;;10.72;92.15
49979;BME280;35869;50.990;6.962;2023-05-01T23:28:54;101547.00;;;10.59;92.36
49979;BME280;35869;50.990;6.962;2023-05-01T23:33:55;101553.75;;;10.64;93.39
49979;BME280;35869;50.990;6.962;2023-05-01T23:38:55;101562.47;;;10.63;92.39
49979;BME280;35869;50.990;6.962;2023-05-01T23:43:55;101562.34;;;10.66;93.54
49979;BME280;35869;50.990;6.962;2023-05-01T23:48:55;101556.81;;;10.77;93.39
49979;BME280;35869;50.990;6.962;2023-05-01T23:53:57;101561.28;;;10.74;96.57
49979;BME280;35869;50.990;6.962;2023-05-01T23:58:57;101546.56;;;10.73;98.49
